Time;durP1;ratioP1;P1;durP2;ratioP2;P2;SDS_P1;SDS_P2;PMS_P1;PMS_P2;Temp;Humidity;BMP_temperature;BMP_pressure;BME280_temperature;BME280_humidity;BME280_pressure;Samples;Min_cycle;Max_cycle;Signal;HPM_P1;HPM_P2
2024/03/30 00:01:31;;;;;;;2.03;0.77;;;24.10;57.70;;;;;;5013816;28;20196;-87
2024/03/30 00:03:59;;;;;;;1.50;0.80;;;24.00;57.60;;;;;;5013599;28;20529;-88
2024/03/30 00:06:27;;;;;;;1.40;0.80;;;24.00;57.60;;;;;;5013821;28;20471;-89
2024/03/30 00:08:54;;;;;;;1.70;0.87;;;24.10;57.70;;;;;;5014143;28;20450;-91
2024/03/30 00:11:20;;;;;;;1.50;0.80;;;24.00;57.70;;;;;;5014259;28;20439;-87
2024/03/30 00:13:47;;;;;;;1.60;1.00;;;24.00;57.70;;;;;;5017660;28;20439;-88
2024/03/30 00:16:12;;;;;;;1.60;0.70;;;24.00;57.70;;;;;;5017656;28;21000;-88
2024/03/30 00:18:42;;;;;;;3.53;0.80;;;24.00;57.70;;;;;;5017817;28;20526;-92
2024/03/30 00:21:13;;;;;;;1.50;0.83;;;24.00;57.80;;;;;;5018243;28;20206;-94
2024/03/30 00:23:40;;;;;;;1.47;0.80;;;24.00;57.70;;;;;;5017667;28;20522;-92
2024/03/30 00:26:05;;;;;;;1.70;0.80;;;23.90;57.70;;;;;;5017888;28;20447;-88
2024/03/30 00:28:32;;;;;;;1.63;0.80;;;23.90;57.70;;;;;;5018016;28;20445;-88
2024/03/30 00:30:58;;;;;;;1.60;0.90;;;23.90;57.70;;;;;;5017505;28;20220;-88
2024/03/30 00:33:25;;;;;;;1.40;0.70;;;23.90;57.80;;;;;;5017845;28;20539;-88
2024/03/30 00:35:55;;;;;;;4.70;1.10;;;23.90;57.80;;;;;;5017607;28;20472;-93
2024/03/30 00:38:22;;;;;;;2.57;0.90;;;23.90;57.80;;;;;;5017735;28;20501;-87
2024/03/30 00:40:48;;;;;;;1.50;0.80;;;23.90;57.80;;;;;;5017772;28;20443;-87
2024/03/30 00:43:15;;;;;;;2.27;1.07;;;23.80;57.70;;;;;;5018126;28;20454;-87
2024/03/30 00:45:42;;;;;;;1.60;0.80;;;23.80;57.70;;;;;;5017727;28;20442;-87
2024/03/30 00:48:09;;;;;;;2.00;1.20;;;23.80;57.80;;;;;;5017974;28;20451;-92
2024/03/30 00:50:35;;;;;;;1.50;0.90;;;23.80;57.80;;;;;;5017394;28;20488;-90
2024/03/30 00:53:03;;;;;;;3.00;1.00;;;23.80;57.80;;;;;;5017885;28;20529;-89
2024/03/30 00:55:29;;;;;;;1.40;0.70;;;23.80;57.80;;;;;;5017727;28;20446;-88
2024/03/30 00:57:56;;;;;;;1.70;0.90;;;23.80;57.80;;;;;;5017796;28;20818;-88
2024/03/30 01:00:22;;;;;;;1.50;0.80;;;23.80;57.80;;;;;;5017632;28;20287;-88
2024/03/30 01:02:49;;;;;;;1.50;0.90;;;23.80;57.80;;;;;;5017651;28;20473;-88
2024/03/30 01:05:15;;;;;;;1.50;0.70;;;23.80;57.80;;;;;;5018620;28;20463;-88
2024/03/30 01:07:42;;;;;;;1.50;0.73;;;23.80;57.90;;;;;;5023301;28;20423;-87
2024/03/30 01:10:10;;;;;;;2.53;0.90;;;23.80;57.90;;;;;;5041121;28;20549;-88
2024/03/30 01:12:37;;;;;;;1.60;0.90;;;23.80;57.90;;;;;;5038923;28;20459;-88
2024/03/30 01:15:04;;;;;;;1.40;0.70;;;23.70;57.80;;;;;;5016623;28;20443;-88
2024/03/30 01:17:34;;;;;;;1.90;0.80;;;23.70;57.80;;;;;;5016297;28;20493;-88
2024/03/30 01:20:00;;;;;;;1.50;0.73;;;23.70;57.80;;;;;;5016537;28;20969;-88
2024/03/30 01:22:27;;;;;;;1.43;0.67;;;23.70;57.90;;;;;;5016890;28;20474;-88
2024/03/30 01:24:54;;;;;;;1.50;0.80;;;23.70;57.80;;;;;;5015326;28;20450;-88
2024/03/30 01:27:26;;;;;;;1.60;0.80;;;23.70;57.90;;;;;;5016345;28;21011;-89
2024/03/30 01:29:54;;;;;;;1.50;0.70;;;23.70;57.90;;;;;;5016518;28;20487;-88
2024/03/30 01:32:21;;;;;;;1.50;0.80;;;23.70;57.90;;;;;;5016776;28;20443;-88
2024/03/30 01:34:48;;;;;;;1.57;0.80;;;23.70;58.00;;;;;;5016291;28;20462;-93
2024/03/30 01:37:14;;;;;;;1.40;0.70;;;23.70;58.00;;;;;;5016689;28;20783;-88
2024/03/30 01:39:40;;;;;;;1.40;0.83;;;23.60;57.90;;;;;;5016619;28;20930;-89
2024/03/30 01:42:07;;;;;;;1.40;0.80;;;23.70;58.00;;;;;;5017983;28;20439;-89
2024/03/30 01:44:35;;;;;;;1.40;0.70;;;23.60;58.00;;;;;;5017367;28;20200;-89
2024/03/30 01:47:03;;;;;;;1.60;1.00;;;23.60;57.90;;;;;;5016625;28;20853;-88
2024/03/30 01:49:29;;;;;;;1.40;0.70;;;23.60;58.00;;;;;;5016468;28;20478;-88
2024/03/30 01:51:57;;;;;;;1.70;0.80;;;23.60;58.00;;;;;;5016495;28;20447;-89
2024/03/30 01:54:23;;;;;;;1.67;0.80;;;23.60;58.00;;;;;;5016830;28;20449;-88
2024/03/30 01:56:52;;;;;;;4.33;0.90;;;23.60;58.00;;;;;;5017327;28;20494;-89
2024/03/30 01:59:18;;;;;;;1.40;0.70;;;23.60;58.00;;;;;;5016356;28;20454;-89
2024/03/30 02:01:47;;;;;;;1.50;0.80;;;23.50;58.00;;;;;;5016237;28;20439;-88
2024/03/30 02:04:14;;;;;;;2.83;0.80;;;23.50;58.60;;;;;;5015997;28;20443;-92
2024/03/30 02:06:42;;;;;;;1.60;0.70;;;23.50;58.00;;;;;;5015855;28;20997;-88
2024/03/30 02:09:10;;;;;;;1.70;0.87;;;23.50;58.10;;;;;;5015621;28;20907;-93
2024/03/30 02:11:37;;;;;;;1.50;0.70;;;23.50;58.10;;;;;;5015961;28;20505;-87
2024/03/30 02:14:03;;;;;;;1.50;0.80;;;23.60;58.20;;;;;;5015987;28;20930;-91
2024/03/30 02:16:32;;;;;;;1.43;0.67;;;23.50;58.10;;;;;;5015714;28;20471;-87
2024/03/30 02:18:59;;;;;;;1.53;0.80;;;23.50;58.10;;;;;;5015609;28;20200;-87
2024/03/30 02:21:25;;;;;;;1.50;0.77;;;23.50;58.20;;;;;;5015493;28;20781;-88
2024/03/30 02:23:53;;;;;;;1.60;0.73;;;23.50;58.10;;;;;;5016111;28;20446;-88
2024/03/30 02:26:19;;;;;;;1.63;0.83;;;23.50;58.10;;;;;;5015160;28;20440;-88
2024/03/30 02:28:47;;;;;;;1.40;0.70;;;23.50;58.10;;;;;;5015378;28;20449;-87
2024/03/30 02:31:14;;;;;;;1.70;0.80;;;23.50;58.10;;;;;;5015414;28;20486;-88
2024/03/30 02:33:40;;;;;;;1.60;0.70;;;23.50;58.10;;;;;;5015242;28;20458;-87
2024/03/30 02:36:08;;;;;;;1.50;0.70;;;23.50;58.00;;;;;;5015338;28;20463;-88
2024/03/30 02:38:34;;;;;;;1.40;0.70;;;23.50;58.00;;;;;;5015261;28;20442;-88
2024/03/30 02:41:02;;;;;;;1.40;0.70;;;23.60;58.00;;;;;;5016305;28;20934;-87
2024/03/30 02:43:28;;;;;;;1.40;0.60;;;23.60;58.00;;;;;;5016215;28;20644;-93
2024/03/30 02:45:54;;;;;;;1.60;0.80;;;23.60;58.00;;;;;;5015231;28;20542;-87
2024/03/30 02:48:20;;;;;;;1.50;0.80;;;23.60;58.00;;;;;;5015102;28;20223;-88
2024/03/30 02:50:47;;;;;;;1.40;0.70;;;23.60;58.60;;;;;;5015463;28;20483;-86
2024/03/30 02:53:12;;;;;;;1.47;0.80;;;23.60;58.00;;;;;;5015143;28;20200;-87
2024/03/30 02:55:39;;;;;;;1.90;0.93;;;23.60;58.00;;;;;;5014791;28;20454;-87
2024/03/30 02:58:06;;;;;;;1.90;0.70;;;23.60;57.90;;;;;;5014962;28;20196;-87
2024/03/30 03:00:33;;;;;;;1.40;0.70;;;23.60;57.90;;;;;;5014903;28;20451;-87
2024/03/30 03:02:59;;;;;;;1.43;0.80;;;23.70;58.00;;;;;;5014863;28;20428;-87
2024/03/30 03:05:26;;;;;;;1.50;0.70;;;23.60;57.90;;;;;;5014645;28;20455;-87
2024/03/30 03:07:51;;;;;;;1.60;0.80;;;23.60;57.90;;;;;;5014483;28;20207;-88
2024/03/30 03:10:18;;;;;;;1.60;0.90;;;23.60;57.90;;;;;;5014363;28;20493;-87
2024/03/30 03:12:44;;;;;;;1.60;0.80;;;23.60;57.90;;;;;;5014465;28;20203;-87
2024/03/30 03:15:12;;;;;;;1.50;0.87;;;23.60;57.90;;;;;;5014498;28;20443;-87
2024/03/30 03:17:38;;;;;;;1.50;0.80;;;23.60;57.90;;;;;;4994670;28;20209;-87
2024/03/30 03:20:06;;;;;;;1.47;0.80;;;23.60;57.90;;;;;;4994740;28;20448;-87
2024/03/30 03:22:32;;;;;;;1.40;0.70;;;23.60;57.90;;;;;;4994661;28;20197;-89
2024/03/30 03:24:59;;;;;;;1.40;0.70;;;23.60;57.90;;;;;;4994765;28;20450;-87
2024/03/30 03:27:24;;;;;;;1.40;0.70;;;23.60;57.90;;;;;;4994802;28;20436;-87
2024/03/30 03:29:51;;;;;;;1.50;0.77;;;23.60;57.90;;;;;;4994544;28;20830;-86
2024/03/30 03:32:18;;;;;;;2.03;0.70;;;23.60;57.80;;;;;;4994528;28;20656;-88
2024/03/30 03:34:45;;;;;;;1.50;0.80;;;23.60;57.80;;;;;;4994456;28;20464;-87
2024/03/30 03:37:11;;;;;;;1.77;0.77;;;23.70;57.80;;;;;;4994573;28;20455;-86
2024/03/30 03:39:38;;;;;;;2.43;0.90;;;23.60;57.80;;;;;;4994934;28;20936;-87
2024/03/30 03:42:04;;;;;;;1.50;0.80;;;23.60;58.10;;;;;;4994694;28;20208;-88
2024/03/30 03:44:30;;;;;;;1.40;0.73;;;23.60;57.80;;;;;;4994518;28;21000;-91
2024/03/30 03:46:56;;;;;;;1.40;0.80;;;23.60;57.80;;;;;;4994027;28;20437;-87
2024/03/30 03:49:25;;;;;;;2.23;1.00;;;23.60;57.90;;;;;;4994666;28;20859;-91
2024/03/30 03:51:50;;;;;;;1.60;1.10;;;23.60;57.90;;;;;;4994505;28;20451;-86
2024/03/30 03:54:19;;;;;;;1.40;0.80;;;23.60;57.90;;;;;;4994572;28;20803;-87
2024/03/30 03:56:44;;;;;;;1.40;0.70;;;23.60;57.90;;;;;;4994405;28;20645;-87
2024/03/30 03:59:11;;;;;;;1.57;0.70;;;23.60;57.90;;;;;;4994561;28;20556;-87
2024/03/30 04:01:37;;;;;;;1.50;0.70;;;23.60;57.90;;;;;;4994750;28;20204;-90
2024/03/30 04:04:04;;;;;;;1.50;0.80;;;23.60;57.90;;;;;;4994572;28;20447;-87
2024/03/30 04:06:31;;;;;;;2.27;1.00;;;23.60;58.00;;;;;;4994177;28;20448;-87
2024/03/30 04:08:58;;;;;;;1.57;0.80;;;23.60;58.00;;;;;;4995032;28;20437;-87
2024/03/30 04:11:24;;;;;;;1.40;0.70;;;23.60;57.90;;;;;;4994381;28;20495;-88
2024/03/30 04:13:51;;;;;;;1.47;0.80;;;23.60;58.00;;;;;;4995073;28;20815;-87
2024/03/30 04:16:17;;;;;;;1.40;0.70;;;23.60;57.90;;;;;;5027226;28;20222;-88
2024/03/30 04:18:44;;;;;;;1.47;0.80;;;23.60;58.00;;;;;;5038200;28;20439;-87
2024/03/30 04:21:09;;;;;;;1.73;0.83;;;23.60;58.00;;;;;;5017359;28;20451;-92
2024/03/30 04:23:38;;;;;;;1.40;0.70;;;23.60;57.90;;;;;;5013727;28;20517;-87
2024/03/30 04:26:05;;;;;;;1.60;0.80;;;23.60;57.90;;;;;;5013654;28;20196;-87
2024/03/30 04:28:32;;;;;;;1.47;0.80;;;23.60;57.90;;;;;;5014224;28;20453;-87
2024/03/30 04:30:58;;;;;;;1.50;0.70;;;23.70;58.10;;;;;;5013871;28;20482;-87
2024/03/30 04:33:25;;;;;;;1.53;0.80;;;23.50;57.90;;;;;;5013489;28;20440;-87
2024/03/30 04:35:54;;;;;;;1.50;0.80;;;23.60;58.00;;;;;;5027964;28;20782;-87
2024/03/30 04:38:20;;;;;;;1.70;0.80;;;23.50;57.90;;;;;;5035985;28;20448;-88
2024/03/30 04:40:56;;;;;;;1.50;0.80;;;23.50;57.90;;;;;;5038043;28;20430;-86
2024/03/30 04:43:23;;;;;;;1.80;1.00;;;23.50;57.90;;;;;;5036431;28;20438;-87
2024/03/30 04:45:49;;;;;;;1.47;0.80;;;23.50;57.90;;;;;;5034530;28;20445;-93
2024/03/30 04:48:16;;;;;;;1.50;0.80;;;23.50;57.90;;;;;;5034296;28;20430;-93
2024/03/30 04:50:42;;;;;;;1.50;0.90;;;23.50;57.90;;;;;;5032899;28;20232;-88
2024/03/30 04:53:08;;;;;;;1.50;0.70;;;23.50;58.00;;;;;;5033478;28;20439;-88
2024/03/30 04:55:35;;;;;;;1.40;0.70;;;23.50;58.00;;;;;;5033255;28;20557;-88
2024/03/30 04:58:03;;;;;;;1.70;0.80;;;23.50;57.90;;;;;;5033805;28;20442;-88
2024/03/30 05:00:29;;;;;;;1.40;0.70;;;23.50;57.90;;;;;;5036917;28;20442;-88
2024/03/30 05:02:56;;;;;;;1.40;0.70;;;23.50;57.90;;;;;;5036911;28;20442;-90
2024/03/30 05:05:21;;;;;;;1.40;0.70;;;23.60;57.90;;;;;;5036671;28;20226;-88
2024/03/30 05:07:48;;;;;;;1.50;0.80;;;23.50;57.90;;;;;;5036567;28;20442;-88
2024/03/30 05:10:14;;;;;;;1.47;0.90;;;23.50;57.90;;;;;;5036603;28;20227;-93
2024/03/30 05:12:42;;;;;;;1.50;0.80;;;23.50;57.90;;;;;;5036597;28;20465;-87
2024/03/30 05:15:09;;;;;;;1.60;0.73;;;23.60;57.90;;;;;;5036166;28;20207;-88
2024/03/30 05:17:36;;;;;;;1.50;0.80;;;23.60;57.90;;;;;;5017116;28;20443;-93
2024/03/30 05:22:47;;;;;;;1.50;0.90;;;23.60;57.90;;;;;;5017100;28;20430;-88
2024/03/30 05:25:14;;;;;;;1.60;0.90;;;23.70;58.00;;;;;;5016541;28;20435;-86
2024/03/30 05:27:40;;;;;;;1.40;0.70;;;23.50;57.80;;;;;;5016863;28;20443;-87
2024/03/30 05:30:08;;;;;;;1.40;0.70;;;23.50;57.80;;;;;;5016744;28;20481;-87
2024/03/30 05:32:35;;;;;;;1.43;0.80;;;23.60;57.90;;;;;;5016799;28;20246;-87
2024/03/30 05:35:02;;;;;;;1.50;0.80;;;23.60;57.90;;;;;;5016975;28;20463;-87
2024/03/30 05:37:28;;;;;;;1.40;0.70;;;23.60;57.90;;;;;;5016455;28;20443;-88
2024/03/30 05:39:54;;;;;;;1.40;0.77;;;23.60;57.90;;;;;;5016589;28;20445;-87
2024/03/30 05:42:20;;;;;;;1.50;0.80;;;23.60;57.90;;;;;;5016360;28;20674;-88
2024/03/30 05:44:48;;;;;;;1.70;0.80;;;23.60;57.90;;;;;;5016633;28;20439;-88
2024/03/30 05:47:13;;;;;;;1.53;0.80;;;23.60;57.90;;;;;;5016416;28;20196;-88
2024/03/30 05:49:42;;;;;;;1.40;0.77;;;23.60;57.90;;;;;;5016911;28;20439;-87
2024/03/30 05:52:07;;;;;;;1.87;0.80;;;23.60;57.90;;;;;;5016871;28;20227;-93
2024/03/30 05:54:34;;;;;;;1.40;0.73;;;23.60;57.90;;;;;;5016402;28;20822;-88
2024/03/30 05:57:00;;;;;;;1.73;1.00;;;23.60;57.80;;;;;;5016705;28;20210;-90
2024/03/30 05:59:27;;;;;;;1.50;0.83;;;23.60;57.90;;;;;;5016421;28;20459;-87
2024/03/30 06:01:52;;;;;;;1.50;0.80;;;23.70;57.90;;;;;;5016325;28;20200;-87
2024/03/30 06:04:19;;;;;;;1.40;0.80;;;23.60;57.90;;;;;;5016371;28;20475;-88
2024/03/30 06:06:49;;;;;;;1.50;0.80;;;23.60;57.90;;;;;;5016063;28;20200;-88
2024/03/30 06:09:16;;;;;;;1.50;0.87;;;23.60;57.80;;;;;;5015601;28;20443;-88
2024/03/30 06:11:42;;;;;;;1.73;0.70;;;23.60;57.80;;;;;;5015726;28;20925;-88
2024/03/30 06:14:09;;;;;;;1.40;0.70;;;23.60;57.90;;;;;;5016400;28;20783;-87
2024/03/30 06:16:35;;;;;;;1.60;0.90;;;23.60;57.90;;;;;;5027680;28;20532;-87
2024/03/30 06:19:01;;;;;;;1.77;0.90;;;23.50;57.80;;;;;;5037828;28;20441;-93
2024/03/30 06:21:27;;;;;;;1.50;0.80;;;23.60;57.90;;;;;;5036887;28;20203;-87
2024/03/30 06:23:55;;;;;;;1.50;0.80;;;23.50;57.80;;;;;;5036035;28;20504;-94
2024/03/30 06:26:21;;;;;;;1.40;0.70;;;23.50;57.80;;;;;;5035721;28;20207;-88
2024/03/30 06:28:48;;;;;;;1.40;0.90;;;23.50;57.80;;;;;;5035727;28;20797;-88
2024/03/30 06:31:14;;;;;;;1.67;0.90;;;23.60;57.90;;;;;;5035626;28;20234;-87
2024/03/30 06:33:40;;;;;;;1.40;0.70;;;23.70;58.00;;;;;;5035462;28;20446;-88
2024/03/30 06:36:07;;;;;;;1.50;0.80;;;23.60;57.90;;;;;;5035576;28;20226;-87
2024/03/30 06:38:34;;;;;;;2.80;1.13;;;23.60;57.80;;;;;;5035631;28;20517;-88
2024/03/30 06:43:46;;;;;;;1.83;0.90;;;23.60;57.80;;;;;;5035548;28;20418;-87
2024/03/30 06:46:13;;;;;;;1.30;0.70;;;23.60;57.80;;;;;;5035184;28;20447;-95
2024/03/30 06:48:40;;;;;;;1.40;0.80;;;23.60;57.80;;;;;;5035414;28;20438;-88
2024/03/30 06:51:07;;;;;;;1.60;0.90;;;23.60;57.80;;;;;;5035010;28;20509;-88
2024/03/30 06:53:34;;;;;;;1.37;0.70;;;23.70;57.80;;;;;;5035353;28;20439;-88
2024/03/30 06:56:02;;;;;;;1.40;0.70;;;23.70;57.80;;;;;;5034943;28;20454;-88
2024/03/30 06:58:29;;;;;;;1.40;0.80;;;23.60;57.80;;;;;;5035444;28;20946;-89
2024/03/30 07:00:55;;;;;;;1.57;0.80;;;23.60;57.80;;;;;;5035147;28;20948;-88
2024/03/30 07:03:22;;;;;;;1.40;0.80;;;23.60;57.80;;;;;;5035652;28;20525;-89
2024/03/30 07:05:47;;;;;;;1.40;0.80;;;23.70;57.80;;;;;;5034628;28;20227;-89
2024/03/30 07:08:14;;;;;;;1.60;0.70;;;23.70;57.80;;;;;;5034718;28;20451;-88
2024/03/30 07:10:40;;;;;;;1.40;0.77;;;23.60;57.80;;;;;;5034999;28;20223;-89
2024/03/30 07:13:08;;;;;;;1.40;0.70;;;23.60;57.80;;;;;;5034517;28;20452;-89
2024/03/30 07:15:35;;;;;;;1.43;0.80;;;23.60;57.70;;;;;;5034944;28;20637;-92
2024/03/30 07:18:03;;;;;;;1.40;0.80;;;23.60;57.80;;;;;;5035434;28;20537;-88
2024/03/30 07:20:29;;;;;;;1.57;0.80;;;23.60;57.80;;;;;;5035318;28;20531;-89
2024/03/30 07:22:56;;;;;;;1.57;0.80;;;23.70;57.80;;;;;;5055415;28;20426;-89
2024/03/30 07:25:23;;;;;;;1.60;0.70;;;23.60;57.80;;;;;;5058886;28;20453;-89
2024/03/30 07:27:49;;;;;;;1.40;0.70;;;23.60;57.70;;;;;;5040763;28;20553;-93
2024/03/30 07:30:17;;;;;;;1.50;0.87;;;23.60;57.80;;;;;;5035352;28;20451;-94
2024/03/30 07:32:43;;;;;;;1.70;0.80;;;23.60;57.80;;;;;;5035265;28;20568;-90
2024/03/30 07:35:09;;;;;;;2.50;0.87;;;23.70;57.90;;;;;;5035598;28;20478;-94
2024/03/30 07:37:37;;;;;;;1.60;0.70;;;23.60;57.90;;;;;;5035148;28;20202;-91
2024/03/30 07:40:04;;;;;;;1.50;0.80;;;23.70;57.90;;;;;;5035241;28;20473;-90
2024/03/30 07:42:31;;;;;;;1.60;1.00;;;23.60;57.90;;;;;;5034187;28;20457;-94
2024/03/30 07:44:58;;;;;;;1.67;1.00;;;23.60;57.90;;;;;;5034423;28;20482;-94
2024/03/30 07:47:25;;;;;;;1.80;0.90;;;23.60;57.90;;;;;;5033902;28;20825;-94
2024/03/30 07:49:52;;;;;;;1.50;0.90;;;23.60;57.90;;;;;;5035208;28;20453;-95
2024/03/30 07:52:17;;;;;;;1.60;1.10;;;23.60;57.90;;;;;;5034907;28;20489;-94
2024/03/30 07:54:44;;;;;;;1.50;0.93;;;23.60;57.90;;;;;;5034671;28;20810;-88
2024/03/30 07:57:10;;;;;;;1.60;1.00;;;23.60;58.00;;;;;;5035193;28;20187;-89
2024/03/30 07:59:37;;;;;;;1.80;1.20;;;23.60;58.00;;;;;;5034692;28;20455;-96
2024/03/30 08:02:03;;;;;;;3.00;1.10;;;23.60;58.00;;;;;;5035162;28;20456;-93
2024/03/30 08:04:31;;;;;;;1.83;0.97;;;23.70;58.20;;;;;;5035935;28;20492;-89
2024/03/30 08:06:57;;;;;;;1.73;1.00;;;23.70;58.40;;;;;;5034971;28;20526;-94
2024/03/30 08:09:24;;;;;;;2.00;1.10;;;23.70;58.20;;;;;;5029665;28;20559;-90
2024/03/30 08:11:50;;;;;;;2.20;1.30;;;23.70;58.30;;;;;;5015026;28;20313;-91
2024/03/30 08:14:19;;;;;;;1.93;1.23;;;23.70;58.30;;;;;;5014975;28;20475;-88
2024/03/30 08:16:45;;;;;;;3.97;1.00;;;23.70;58.30;;;;;;5013651;28;20243;-88
2024/03/30 08:19:12;;;;;;;1.70;0.97;;;23.70;58.20;;;;;;5013337;28;20435;-88
2024/03/30 08:21:39;;;;;;;2.20;1.30;;;23.70;57.40;;;;;;5013306;28;20435;-87
2024/03/30 08:24:06;;;;;;;1.53;0.90;;;23.80;57.90;;;;;;5013916;28;20201;-88
2024/03/30 08:26:32;;;;;;;2.20;1.20;;;23.70;57.50;;;;;;5014030;28;20465;-88
2024/03/30 08:28:59;;;;;;;1.90;1.10;;;23.70;57.40;;;;;;5014003;28;20443;-88
2024/03/30 08:31:25;;;;;;;2.13;1.40;;;23.80;57.40;;;;;;5014025;28;20228;-88
2024/03/30 08:33:52;;;;;;;1.60;1.00;;;23.70;57.40;;;;;;4998251;28;20802;-88
2024/03/30 08:36:18;;;;;;;1.63;1.10;;;23.70;57.30;;;;;;5017850;28;20458;-88
2024/03/30 08:38:46;;;;;;;1.63;1.00;;;23.70;57.30;;;;;;5017658;28;20451;-91
2024/03/30 08:44:25;;;;;;;3.50;1.10;;;23.80;57.70;;;;;;5019447;28;20443;-89
2024/03/30 08:46:51;;;;;;;2.40;1.20;;;23.80;57.80;;;;;;5006051;28;20459;-90
2024/03/30 08:49:20;;;;;;;1.83;1.20;;;24.00;58.20;;;;;;5028573;28;20457;-92
2024/03/30 08:51:47;;;;;;;4.73;1.30;;;24.00;58.20;;;;;;5023051;28;20216;-86
2024/03/30 08:54:15;;;;;;;3.60;1.70;;;23.90;58.70;;;;;;5020806;28;20946;-85
2024/03/30 08:56:42;;;;;;;1.83;1.40;;;23.90;58.90;;;;;;5020372;28;20469;-86
2024/03/30 08:59:08;;;;;;;2.97;1.20;;;23.90;58.90;;;;;;5020403;28;20431;-86
2024/03/30 09:01:37;;;;;;;3.40;1.47;;;24.00;59.10;;;;;;5019723;28;20845;-85
2024/03/30 09:04:03;;;;;;;2.17;1.30;;;24.00;59.10;;;;;;5019494;28;20451;-85
2024/03/30 09:06:29;;;;;;;2.57;1.20;;;24.00;59.00;;;;;;5019557;28;20525;-85
2024/03/30 09:08:56;;;;;;;2.67;1.40;;;24.00;59.00;;;;;;5023285;28;20482;-91
2024/03/30 09:11:24;;;;;;;1.63;1.20;;;24.10;59.10;;;;;;5022393;28;20494;-91
2024/03/30 09:13:51;;;;;;;4.90;1.40;;;24.10;59.10;;;;;;5023199;28;20457;-91
2024/03/30 09:16:17;;;;;;;3.40;1.50;;;24.20;59.10;;;;;;5021887;28;20478;-91
2024/03/30 09:18:44;;;;;;;3.90;1.73;;;24.30;59.20;;;;;;5022537;28;20475;-91
2024/03/30 09:21:10;;;;;;;2.00;1.10;;;24.30;59.20;;;;;;5022159;28;20981;-91
2024/03/30 09:23:37;;;;;;;6.07;1.80;;;24.30;59.30;;;;;;5027191;28;20443;-91
2024/03/30 09:26:04;;;;;;;2.60;1.40;;;24.30;59.90;;;;;;5026610;28;20443;-86
2024/03/30 09:28:32;;;;;;;2.13;1.67;;;24.30;60.10;;;;;;5020462;28;20470;-84
2024/03/30 09:30:57;;;;;;;2.10;1.30;;;24.30;60.30;;;;;;5019835;28;20474;-85
2024/03/30 09:33:24;;;;;;;2.73;1.70;;;24.30;60.40;;;;;;5018548;28;20455;-87
2024/03/30 09:35:51;;;;;;;6.57;2.10;;;24.40;60.30;;;;;;5018760;28;20219;-84
2024/03/30 09:38:18;;;;;;;2.63;1.67;;;24.40;60.20;;;;;;5019070;28;20447;-87
2024/03/30 09:40:51;;;;;;;2.30;1.40;;;24.40;60.30;;;;;;5018538;28;20501;-86
2024/03/30 09:43:19;;;;;;;3.30;1.70;;;24.40;60.00;;;;;;5018148;28;20447;-87
2024/03/30 09:45:48;;;;;;;2.10;1.60;;;24.40;60.00;;;;;;5017781;28;20470;-87
2024/03/30 09:48:19;;;;;;;3.17;1.40;;;24.50;59.90;;;;;;5018632;28;20440;-87
2024/03/30 09:50:47;;;;;;;3.80;1.57;;;24.50;59.90;;;;;;5018431;28;20435;-87
2024/03/30 09:53:17;;;;;;;2.53;1.50;;;24.60;59.90;;;;;;5018874;28;20465;-87
2024/03/30 09:55:43;;;;;;;1.87;1.30;;;24.50;59.80;;;;;;5017083;28;20796;-86
2024/03/30 09:58:11;;;;;;;3.33;1.40;;;24.60;59.90;;;;;;5017068;28;20450;-87
2024/03/30 10:00:39;;;;;;;2.53;1.67;;;24.70;59.80;;;;;;5018185;28;20539;-87
2024/03/30 10:03:08;;;;;;;2.90;1.53;;;24.70;59.80;;;;;;5020381;28;20482;-91
2024/03/30 10:05:40;;;;;;;2.20;1.43;;;24.70;59.70;;;;;;5022015;28;20481;-92
2024/03/30 10:08:09;;;;;;;6.33;1.80;;;24.70;60.30;;;;;;5021296;28;20423;-93
2024/03/30 10:10:34;;;;;;;2.43;1.40;;;24.80;60.40;;;;;;5021760;28;20443;-93
2024/03/30 10:13:04;;;;;;;3.40;1.40;;;24.90;60.40;;;;;;5022181;28;20501;-92
2024/03/30 10:15:35;;;;;;;5.03;1.30;;;24.90;60.30;;;;;;5022371;28;20471;-89
2024/03/30 10:18:03;;;;;;;4.77;1.60;;;24.90;60.20;;;;;;5021200;28;20443;-88
2024/03/30 10:20:30;;;;;;;5.20;1.60;;;24.90;60.00;;;;;;5018732;28;20442;-89
2024/03/30 10:22:57;;;;;;;2.37;1.20;;;24.90;59.70;;;;;;5019711;28;20532;-89
2024/03/30 10:25:24;;;;;;;2.93;1.57;;;24.90;59.80;;;;;;5018735;28;20439;-89
2024/03/30 10:27:52;;;;;;;6.90;1.50;;;24.90;59.70;;;;;;5024750;28;20443;-89
2024/03/30 10:30:18;;;;;;;3.73;1.60;;;24.80;59.80;;;;;;5031653;28;20435;-88
2024/03/30 10:32:46;;;;;;;2.53;1.50;;;24.90;60.00;;;;;;5027862;28;20514;-89
2024/03/30 10:35:14;;;;;;;4.67;1.77;;;24.80;59.90;;;;;;5018642;28;20530;-88
2024/03/30 10:37:43;;;;;;;2.90;1.50;;;24.80;59.80;;;;;;5018902;28;20443;-88
2024/03/30 10:40:10;;;;;;;6.63;1.93;;;24.80;59.60;;;;;;5020389;28;20513;-89
2024/03/30 10:42:38;;;;;;;3.27;1.43;;;24.80;59.60;;;;;;5024189;28;20519;-89
2024/03/30 10:45:04;;;;;;;5.77;1.67;;;24.80;59.60;;;;;;5024139;28;20483;-89
2024/03/30 10:47:32;;;;;;;5.47;1.80;;;24.80;59.50;;;;;;5021128;28;20514;-88
2024/03/30 10:49:58;;;;;;;4.47;2.07;;;24.80;59.50;;;;;;5021991;28;21014;-87
2024/03/30 10:52:25;;;;;;;6.13;2.00;;;24.80;59.50;;;;;;5018948;28;20482;-89
2024/03/30 10:54:55;;;;;;;5.37;1.80;;;24.80;59.50;;;;;;5018922;28;20442;-89
2024/03/30 10:57:22;;;;;;;2.53;1.60;;;24.80;59.50;;;;;;5018519;28;20467;-87
2024/03/30 10:59:49;;;;;;;12.43;2.13;;;24.80;59.30;;;;;;5017999;28;20443;-87
2024/03/30 11:02:18;;;;;;;5.50;1.67;;;24.80;59.20;;;;;;5018452;28;20463;-89
2024/03/30 11:04:44;;;;;;;3.37;1.50;;;24.80;59.10;;;;;;5020127;28;20478;-89
2024/03/30 11:07:13;;;;;;;3.70;1.67;;;24.80;59.00;;;;;;5019962;28;20446;-88
2024/03/30 11:09:41;;;;;;;3.23;2.13;;;24.80;58.90;;;;;;5020604;28;20438;-88
2024/03/30 11:12:11;;;;;;;6.03;1.70;;;24.70;58.80;;;;;;5021047;28;20829;-89
2024/03/30 11:14:37;;;;;;;4.30;1.50;;;24.70;58.70;;;;;;5020716;28;20439;-89
2024/03/30 11:17:19;;;;;;;3.60;1.73;;;24.70;58.60;;;;;;5017113;28;20860;-92
2024/03/30 11:19:58;;;;;;;3.77;2.17;;;24.80;58.60;;;;;;5015566;28;20439;-91
2024/03/30 11:22:39;;;;;;;5.50;1.80;;;24.80;59.00;;;;;;5015065;28;20938;-90
2024/03/30 11:25:09;;;;;;;3.83;1.73;;;24.80;58.80;;;;;;5015229;28;20445;-91
2024/03/30 11:27:45;;;;;;;3.43;1.50;;;24.90;58.90;;;;;;5014921;28;20436;-90
2024/03/30 11:30:28;;;;;;;10.80;2.20;;;24.90;58.80;;;;;;5014893;28;20439;-90
2024/03/30 11:33:03;;;;;;;3.63;2.27;;;25.00;58.80;;;;;;5014871;28;21015;-91
2024/03/30 11:35:35;;;;;;;4.77;2.00;;;25.00;58.70;;;;;;5014189;28;20459;-91
2024/03/30 11:38:07;;;;;;;4.83;1.93;;;25.10;58.70;;;;;;5016888;28;20451;-91
2024/03/30 11:40:37;;;;;;;5.23;2.10;;;25.00;58.70;;;;;;5015190;28;20447;-91
2024/03/30 11:43:15;;;;;;;4.87;2.60;;;25.00;58.80;;;;;;5015488;28;20443;-91
2024/03/30 11:45:43;;;;;;;8.03;2.97;;;25.10;58.90;;;;;;5015664;28;20431;-91
2024/03/30 11:48:10;;;;;;;7.20;2.80;;;25.10;58.80;;;;;;5014986;28;20447;-92
2024/03/30 11:50:36;;;;;;;5.77;2.77;;;25.10;58.80;;;;;;5015020;28;20787;-92
2024/03/30 11:53:03;;;;;;;7.97;3.07;;;25.00;58.50;;;;;;5014787;28;20486;-91
2024/03/30 11:55:31;;;;;;;5.37;2.13;;;24.90;58.20;;;;;;5014569;28;20515;-91
2024/03/30 11:58:01;;;;;;;8.40;3.23;;;25.00;59.20;;;;;;5014705;28;20455;-92
2024/03/30 12:00:29;;;;;;;7.97;3.03;;;24.90;58.90;;;;;;5014215;28;20443;-89
2024/03/30 12:03:00;;;;;;;5.47;2.60;;;25.00;57.90;;;;;;5015218;28;20820;-91
2024/03/30 12:05:29;;;;;;;8.07;2.43;;;24.80;57.60;;;;;;5014958;28;20474;-91
2024/03/30 12:07:57;;;;;;;21.07;3.30;;;24.80;59.30;;;;;;5014076;28;20451;-90
2024/03/30 12:10:23;;;;;;;5.73;2.80;;;25.00;59.70;;;;;;5014934;28;20451;-91
2024/03/30 12:12:58;;;;;;;8.90;2.80;;;;;;;;;;5014147;28;20518;-85
2024/03/30 12:15:25;;;;;;;6.90;2.40;;;24.90;58.90;;;;;;5013906;28;20442;-91
2024/03/30 12:17:54;;;;;;;8.73;3.17;;;24.80;59.80;;;;;;5013809;28;20814;-87
2024/03/30 12:20:20;;;;;;;6.83;2.57;;;24.80;60.20;;;;;;5013839;28;20439;-86
2024/03/30 12:22:47;;;;;;;6.97;2.93;;;24.80;60.00;;;;;;5014343;28;20435;-92
2024/03/30 12:25:14;;;;;;;5.83;2.57;;;24.80;59.90;;;;;;5014253;28;20431;-93
2024/03/30 12:27:42;;;;;;;5.83;1.80;;;24.70;59.10;;;;;;5014290;28;20446;-88
2024/03/30 12:30:09;;;;;;;5.30;2.53;;;24.70;58.00;;;;;;5013200;28;20443;-85
2024/03/30 12:32:38;;;;;;;12.53;3.60;;;24.70;59.50;;;;;;5014347;28;20479;-86
2024/03/30 12:35:07;;;;;;;8.77;3.23;;;24.70;59.80;;;;;;5013792;28;20916;-85
2024/03/30 12:37:34;;;;;;;6.07;2.87;;;24.80;59.70;;;;;;5006733;28;20821;-85
2024/03/30 12:40:00;;;;;;;8.23;2.20;;;24.80;59.60;;;;;;5014166;28;20469;-85
2024/03/30 12:42:27;;;;;;;7.70;2.83;;;24.80;59.50;;;;;;5013541;28;20447;-89
2024/03/30 12:44:53;;;;;;;14.43;2.90;;;24.80;59.50;;;;;;4997585;28;20688;-89
2024/03/30 12:47:20;;;;;;;6.93;2.63;;;24.80;59.60;;;;;;4995051;28;20880;-90
2024/03/30 12:49:46;;;;;;;6.47;2.27;;;24.70;59.00;;;;;;4994093;28;20620;-90
